createdAt,value
2023-04-28T00:00:14.726Z,99.90
2023-04-28T00:02:43.729Z,99.90
2023-04-28T00:05:13.139Z,99.90
2023-04-28T00:07:42.012Z,99.90
2023-04-28T00:10:11.229Z,99.90
2023-04-28T00:12:39.888Z,99.90
2023-04-28T00:15:08.950Z,99.90
2023-04-28T00:17:37.744Z,99.90
2023-04-28T00:20:07.152Z,99.90
2023-04-28T00:22:35.973Z,99.90
2023-04-28T00:25:04.866Z,99.90
2023-04-28T00:27:34.841Z,99.90
2023-04-28T00:30:03.639Z,99.90
2023-04-28T00:32:32.289Z,99.90
2023-04-28T00:35:00.904Z,99.90
2023-04-28T00:37:29.474Z,99.90
2023-04-28T00:39:58.546Z,99.90
2023-04-28T00:42:27.388Z,99.90
2023-04-28T00:44:56.075Z,99.90
2023-04-28T00:47:24.876Z,99.90
2023-04-28T00:49:54.095Z,99.90
2023-04-28T00:52:22.822Z,99.90
2023-04-28T00:54:52.061Z,99.90
2023-04-28T00:57:21.530Z,99.90
2023-04-28T00:59:50.273Z,99.90
2023-04-28T01:02:19.362Z,99.90
2023-04-28T01:04:49.420Z,99.90
2023-04-28T01:07:18.059Z,99.90
2023-04-28T01:09:48.672Z,99.90
2023-04-28T01:12:17.329Z,99.90
2023-04-28T01:14:46.254Z,99.90
2023-04-28T01:17:15.057Z,99.90
2023-04-28T01:19:43.835Z,99.90
2023-04-28T01:22:15.008Z,99.90
2023-04-28T01:24:43.890Z,99.90
2023-04-28T01:27:12.910Z,99.90
2023-04-28T01:29:41.853Z,99.90
2023-04-28T01:32:10.813Z,99.90
2023-04-28T01:34:39.532Z,99.90
2023-04-28T01:37:08.240Z,99.90
2023-04-28T01:39:37.239Z,99.90
2023-04-28T01:42:06.189Z,99.90
2023-04-28T01:44:35.320Z,99.90
2023-04-28T01:47:04.077Z,99.90
2023-04-28T01:49:33.179Z,99.90
2023-04-28T01:52:01.863Z,99.90
2023-04-28T01:54:30.579Z,99.90
2023-04-28T01:56:59.448Z,99.90
2023-04-28T01:59:28.423Z,99.90
2023-04-28T02:01:57.176Z,99.90
2023-04-28T02:04:26.102Z,99.90
2023-04-28T02:06:54.855Z,99.90
2023-04-28T02:09:23.526Z,99.90
2023-04-28T02:11:52.322Z,99.90
2023-04-28T02:14:21.044Z,99.90
2023-04-28T02:16:49.712Z,99.20
2023-04-28T02:19:18.401Z,99.20
2023-04-28T02:21:47.132Z,99.00
2023-04-28T02:24:16.051Z,99.00
2023-04-28T02:26:45.108Z,98.60
2023-04-28T02:29:13.880Z,98.50
2023-04-28T02:31:42.616Z,98.40
2023-04-28T02:34:11.545Z,96.60
2023-04-28T02:36:41.194Z,97.50
2023-04-28T02:39:09.953Z,96.40
2023-04-28T02:41:38.670Z,96.00
2023-04-28T02:44:07.390Z,96.60
2023-04-28T02:46:36.169Z,94.40
2023-04-28T02:49:04.990Z,96.50
2023-04-28T02:51:33.893Z,96.00
2023-04-28T02:54:02.595Z,94.80
2023-04-28T02:56:31.699Z,96.60
2023-04-28T02:59:00.551Z,95.00
2023-04-28T03:01:29.339Z,95.50
2023-04-28T03:03:58.157Z,94.10
2023-04-28T03:06:27.593Z,92.80
2023-04-28T03:08:56.277Z,92.40
2023-04-28T03:11:25.065Z,95.10
2023-04-28T03:13:53.762Z,94.00
2023-04-28T03:16:22.523Z,92.90
2023-04-28T03:18:51.404Z,92.70
2023-04-28T03:21:20.133Z,94.00
2023-04-28T03:23:48.856Z,93.20
2023-04-28T03:26:17.814Z,93.40
2023-04-28T03:28:47.070Z,91.80
2023-04-28T03:31:15.737Z,93.30
2023-04-28T03:33:46.568Z,94.10
2023-04-28T03:36:15.409Z,91.20
2023-04-28T03:38:44.154Z,91.50
2023-04-28T03:41:12.830Z,93.10
2023-04-28T03:43:41.645Z,91.40
2023-04-28T03:46:10.565Z,91.60
2023-04-28T03:48:39.263Z,91.50
2023-04-28T03:51:08.074Z,89.70
2023-04-28T03:53:36.798Z,90.00
2023-04-28T03:56:05.599Z,92.60
2023-04-28T03:58:34.264Z,90.30
2023-04-28T04:01:03.058Z,91.70
2023-04-28T04:03:32.077Z,90.80
2023-04-28T04:06:00.965Z,88.60
2023-04-28T04:08:29.669Z,90.10
2023-04-28T04:10:58.531Z,88.70
2023-04-28T04:13:27.214Z,88.50
2023-04-28T04:15:55.978Z,85.10
2023-04-28T04:18:24.816Z,86.70
2023-04-28T04:20:55.029Z,87.00
2023-04-28T04:23:24.157Z,86.50
2023-04-28T04:25:52.870Z,90.30
2023-04-28T04:28:21.901Z,85.40
2023-04-28T04:30:50.546Z,86.00
2023-04-28T04:33:19.181Z,85.60
2023-04-28T04:35:48.228Z,82.00
2023-04-28T04:38:16.995Z,85.10
2023-04-28T04:40:45.646Z,86.80
2023-04-28T04:43:14.268Z,85.30
2023-04-28T04:45:42.927Z,86.50
2023-04-28T04:48:11.619Z,84.90
2023-04-28T04:50:40.370Z,84.30
2023-04-28T04:53:12.175Z,88.20
2023-04-28T04:55:42.773Z,89.20
2023-04-28T04:58:11.815Z,89.50
2023-04-28T05:00:40.557Z,86.70
2023-04-28T05:03:10.433Z,81.90
2023-04-28T05:05:41.115Z,81.70
2023-04-28T05:08:09.837Z,82.50
2023-04-28T05:10:38.560Z,85.40
2023-04-28T05:13:07.392Z,88.10
2023-04-28T05:15:36.094Z,88.00
2023-04-28T05:18:10.959Z,88.50
2023-04-28T05:20:39.860Z,88.70
2023-04-28T05:23:09.096Z,88.90
2023-04-28T05:25:37.858Z,88.30
2023-04-28T05:28:08.549Z,88.60
2023-04-28T05:30:37.227Z,89.90
2023-04-28T05:33:06.108Z,88.90
2023-04-28T05:35:34.880Z,87.80
2023-04-28T05:38:03.629Z,89.00
2023-04-28T05:40:32.403Z,89.10
2023-04-28T05:43:01.130Z,89.00
2023-04-28T05:45:29.895Z,87.20
2023-04-28T05:47:58.653Z,88.30
2023-04-28T05:50:27.832Z,88.30
2023-04-28T05:52:56.526Z,89.10
2023-04-28T05:55:25.264Z,87.10
2023-04-28T05:57:55.916Z,87.00
2023-04-28T06:00:24.641Z,86.70
2023-04-28T06:02:53.543Z,86.30
2023-04-28T06:05:22.992Z,88.30
2023-04-28T06:07:54.488Z,88.40
2023-04-28T06:10:24.746Z,86.90
2023-04-28T06:12:53.471Z,85.80
2023-04-28T06:15:22.349Z,88.90
2023-04-28T06:17:51.237Z,88.30
2023-04-28T06:20:20.157Z,88.40
2023-04-28T06:22:48.909Z,86.60
2023-04-28T06:25:17.744Z,87.10
2023-04-28T06:27:47.147Z,86.00
2023-04-28T06:30:23.561Z,86.40
2023-04-28T06:32:52.622Z,87.20
2023-04-28T06:35:21.571Z,85.10
2023-04-28T06:37:50.303Z,84.80
2023-04-28T06:40:19.047Z,86.90
2023-04-28T06:42:48.108Z,86.90
2023-04-28T06:45:16.954Z,86.10
2023-04-28T06:47:46.206Z,87.70
2023-04-28T06:50:14.956Z,86.40
2023-04-28T06:52:43.644Z,87.50
2023-04-28T06:55:15.474Z,88.20
2023-04-28T06:57:44.480Z,85.30
2023-04-28T07:00:13.847Z,85.20
2023-04-28T07:02:42.624Z,85.70
2023-04-28T07:05:12.009Z,84.20
2023-04-28T07:07:42.123Z,85.40
2023-04-28T07:10:12.228Z,83.40
2023-04-28T07:12:40.838Z,82.90
2023-04-28T07:15:10.434Z,82.20
2023-04-28T07:17:39.868Z,84.60
2023-04-28T07:20:09.070Z,84.70
2023-04-28T07:22:37.822Z,82.30
2023-04-28T07:25:07.408Z,84.00
2023-04-28T07:27:36.094Z,84.20
2023-04-28T07:30:11.873Z,81.00
2023-04-28T07:32:53.592Z,81.50
2023-04-28T07:35:22.324Z,81.80
2023-04-28T07:37:51.062Z,81.50
2023-04-28T07:40:20.810Z,82.80
2023-04-28T07:42:49.761Z,83.80
2023-04-28T07:45:18.854Z,82.40
2023-04-28T07:47:47.693Z,80.10
2023-04-28T07:50:17.285Z,82.70
2023-04-28T07:52:46.103Z,82.40
2023-04-28T07:55:15.010Z,81.50
2023-04-28T07:57:43.842Z,84.00
2023-04-28T08:00:13.228Z,83.60
2023-04-28T08:02:42.172Z,81.80
2023-04-28T08:05:11.650Z,80.60
2023-04-28T08:07:40.694Z,82.90
2023-04-28T08:10:12.651Z,83.20
2023-04-28T08:12:42.233Z,83.30
2023-04-28T08:15:11.964Z,82.30
2023-04-28T08:17:40.982Z,82.00
2023-04-28T08:20:10.375Z,81.90
2023-04-28T08:22:39.223Z,81.60
2023-04-28T08:25:08.536Z,80.90
2023-04-28T08:27:39.308Z,78.50
2023-04-28T08:30:10.684Z,79.30
2023-04-28T08:32:39.716Z,81.80
2023-04-28T08:35:09.561Z,79.90
2023-04-28T08:37:38.821Z,81.20
2023-04-28T08:40:10.880Z,79.20
2023-04-28T08:42:40.706Z,78.90
2023-04-28T08:45:14.160Z,79.10
2023-04-28T08:47:47.093Z,78.00
2023-04-28T08:50:17.416Z,79.60
2023-04-28T08:52:46.589Z,79.00
2023-04-28T08:55:16.766Z,79.60
2023-04-28T08:57:48.350Z,80.10
2023-04-28T09:00:17.750Z,79.80
2023-04-28T09:02:46.836Z,79.80
2023-04-28T09:05:16.600Z,81.20
2023-04-28T09:07:49.863Z,79.60
2023-04-28T09:10:19.593Z,79.70
2023-04-28T09:12:50.238Z,79.50
2023-04-28T09:15:42.597Z,77.10
2023-04-28T09:18:16.753Z,78.50
2023-04-28T09:20:46.708Z,79.50
2023-04-28T09:23:20.664Z,78.10
2023-04-28T09:26:09.158Z,77.20
2023-04-28T09:28:38.310Z,78.10
2023-04-28T09:31:23.764Z,78.40
2023-04-28T09:34:00.620Z,78.50
2023-04-28T09:36:32.149Z,78.60
2023-04-28T09:39:01.320Z,78.10
2023-04-28T09:41:46.488Z,77.60
2023-04-28T09:44:19.250Z,79.80
2023-04-28T09:46:49.276Z,78.80
2023-04-28T09:49:18.076Z,78.10
2023-04-28T09:51:47.282Z,78.00
2023-04-28T09:54:17.414Z,79.60
2023-04-28T09:56:49.684Z,78.70
2023-04-28T09:59:18.596Z,79.20
2023-04-28T10:01:47.699Z,79.80
2023-04-28T10:04:17.281Z,78.90
2023-04-28T10:06:46.704Z,79.10
2023-04-28T10:09:15.862Z,79.90
2023-04-28T10:11:44.843Z,79.70
2023-04-28T10:14:14.113Z,81.00
2023-04-28T10:16:44.456Z,80.80
2023-04-28T10:19:14.280Z,81.40
2023-04-28T10:21:55.526Z,80.80
2023-04-28T10:24:31.876Z,80.40
2023-04-28T10:27:10.314Z,80.40
2023-04-28T10:29:39.405Z,80.70
2023-04-28T10:32:27.195Z,80.70
2023-04-28T10:35:24.622Z,80.80
2023-04-28T10:38:23.635Z,81.10
2023-04-28T10:40:56.245Z,81.50
2023-04-28T10:43:32.141Z,80.70
2023-04-28T10:46:03.889Z,79.70
2023-04-28T10:48:34.972Z,79.70
2023-04-28T10:51:10.427Z,80.30
2023-04-28T10:53:47.813Z,80.30
2023-04-28T10:56:20.975Z,80.80
2023-04-28T10:58:51.615Z,80.80
2023-04-28T11:01:23.182Z,80.90
2023-04-28T11:04:01.420Z,81.10
2023-04-28T11:06:35.520Z,81.30
2023-04-28T11:09:22.007Z,82.00
2023-04-28T11:12:12.258Z,82.10
2023-04-28T11:14:42.355Z,82.30
2023-04-28T11:17:14.773Z,82.50
2023-04-28T11:19:47.230Z,82.90
2023-04-28T11:22:19.564Z,83.00
2023-04-28T11:25:05.042Z,83.20
2023-04-28T11:27:35.603Z,83.50
2023-04-28T11:30:06.308Z,84.00
2023-04-28T11:32:36.691Z,84.50
2023-04-28T11:35:06.506Z,84.90
2023-04-28T11:37:35.365Z,85.20
2023-04-28T11:40:13.296Z,85.80
2023-04-28T11:42:50.330Z,86.00
2023-04-28T11:45:19.256Z,86.20
2023-04-28T11:47:48.399Z,86.20
2023-04-28T11:50:17.397Z,86.30
2023-04-28T11:52:54.008Z,86.80
2023-04-28T11:55:23.096Z,87.00
2023-04-28T11:58:11.522Z,88.10
2023-04-28T12:00:40.352Z,88.40
2023-04-28T12:03:10.294Z,88.60
2023-04-28T12:05:46.613Z,89.00
2023-04-28T12:08:16.329Z,89.00
2023-04-28T12:10:45.371Z,89.20
2023-04-28T12:13:18.183Z,89.50
2023-04-28T12:15:47.080Z,89.40
2023-04-28T12:18:17.959Z,88.50
2023-04-28T12:20:46.857Z,88.10
2023-04-28T12:23:15.723Z,88.00
2023-04-28T12:25:46.463Z,88.10
2023-04-28T12:28:15.426Z,87.90
2023-04-28T12:30:44.715Z,87.90
2023-04-28T12:33:30.899Z,88.10
2023-04-28T12:36:00.774Z,88.20
2023-04-28T12:38:29.771Z,88.20
2023-04-28T12:40:59.758Z,88.30
2023-04-28T12:43:30.235Z,88.30
2023-04-28T12:45:59.048Z,88.40
2023-04-28T12:48:28.714Z,88.30
2023-04-28T12:50:57.424Z,88.50
2023-04-28T12:53:26.506Z,88.50
2023-04-28T12:55:55.986Z,88.70
2023-04-28T12:58:24.716Z,88.60
2023-04-28T13:00:56.132Z,88.60
2023-04-28T13:03:25.330Z,88.50
2023-04-28T13:05:54.162Z,88.70
2023-04-28T13:08:23.184Z,88.40
2023-04-28T13:10:52.355Z,88.50
2023-04-28T13:13:21.065Z,88.50
2023-04-28T13:15:49.893Z,88.50
2023-04-28T13:18:18.747Z,88.60
2023-04-28T13:20:47.512Z,88.60
2023-04-28T13:23:16.400Z,88.70
2023-04-28T13:25:45.614Z,88.70
2023-04-28T13:28:15.474Z,88.60
2023-04-28T13:30:44.274Z,88.60
2023-04-28T13:33:13.135Z,89.00
2023-04-28T13:35:42.228Z,88.90
2023-04-28T13:38:10.991Z,89.00
2023-04-28T13:40:39.780Z,88.70
2023-04-28T13:43:08.646Z,88.80
2023-04-28T13:45:37.442Z,88.90
2023-04-28T13:48:06.336Z,89.10
2023-04-28T13:50:35.430Z,89.20
2023-04-28T13:53:05.153Z,89.30
2023-04-28T13:55:34.016Z,89.40
2023-04-28T13:58:05.803Z,89.60
2023-04-28T14:00:35.916Z,90.00
2023-04-28T14:03:04.935Z,90.30
2023-04-28T14:05:42.100Z,90.30
2023-04-28T14:08:20.441Z,90.40
2023-04-28T14:10:50.561Z,90.40
2023-04-28T14:13:20.241Z,90.70
2023-04-28T14:15:58.539Z,90.50
2023-04-28T14:18:29.532Z,90.10
2023-04-28T14:20:58.677Z,90.00
2023-04-28T14:23:27.833Z,89.90
2023-04-28T14:25:59.046Z,90.00
2023-04-28T14:28:27.906Z,89.40
2023-04-28T14:30:56.842Z,89.00
2023-04-28T14:33:25.886Z,89.10
2023-04-28T14:35:54.905Z,88.60
2023-04-28T14:38:23.796Z,87.80
2023-04-28T14:40:52.657Z,88.50
2023-04-28T14:43:21.898Z,87.50
2023-04-28T14:45:51.393Z,87.50
2023-04-28T14:48:21.131Z,87.70
2023-04-28T14:50:50.154Z,87.90
2023-04-28T14:53:19.079Z,87.90
2023-04-28T14:55:47.989Z,88.00
2023-04-28T14:58:17.002Z,88.10
2023-04-28T15:00:45.984Z,88.30
2023-04-28T15:03:15.346Z,89.10
2023-04-28T15:05:45.023Z,88.30
2023-04-28T15:08:14.023Z,88.60
2023-04-28T15:10:43.165Z,88.70
2023-04-28T15:13:12.163Z,88.80
2023-04-28T15:15:41.600Z,88.90
2023-04-28T15:18:11.331Z,89.00
2023-04-28T15:20:40.395Z,89.10
2023-04-28T15:23:09.175Z,89.30
2023-04-28T15:25:38.124Z,89.50
2023-04-28T15:28:08.389Z,89.60
2023-04-28T15:30:37.245Z,89.90
2023-04-28T15:33:06.162Z,90.10
2023-04-28T15:35:35.959Z,90.30
2023-04-28T15:38:04.779Z,90.00
2023-04-28T15:40:33.585Z,90.10
2023-04-28T15:43:02.399Z,90.10
2023-04-28T15:45:31.231Z,90.20
2023-04-28T15:48:00.390Z,90.30
2023-04-28T15:50:29.307Z,90.60
2023-04-28T15:52:58.585Z,90.20
2023-04-28T15:55:27.574Z,90.30
2023-04-28T15:57:57.256Z,90.40
2023-04-28T16:00:26.037Z,90.90
2023-04-28T16:02:55.036Z,90.60
2023-04-28T16:05:24.040Z,90.70
2023-04-28T16:07:53.825Z,90.90
2023-04-28T16:10:22.560Z,91.10
2023-04-28T16:12:51.451Z,91.10
2023-04-28T16:15:20.775Z,91.30
2023-04-28T16:17:50.156Z,91.20
2023-04-28T16:20:19.247Z,91.10
2023-04-28T16:22:48.126Z,91.20
2023-04-28T16:25:17.136Z,91.40
2023-04-28T16:27:46.547Z,91.70
2023-04-28T16:30:15.553Z,91.80
2023-04-28T16:32:44.348Z,91.70
2023-04-28T16:35:15.464Z,91.40
2023-04-28T16:37:44.708Z,91.70
2023-04-28T16:40:14.546Z,91.70
2023-04-28T16:42:44.471Z,91.70
2023-04-28T16:45:14.034Z,91.90
2023-04-28T16:47:44.302Z,92.10
2023-04-28T16:50:15.658Z,92.40
2023-04-28T16:52:44.603Z,92.60
2023-04-28T16:55:13.600Z,92.00
2023-04-28T16:57:42.815Z,91.90
2023-04-28T17:01:15.784Z,92.30
2023-04-28T17:03:46.426Z,92.30
2023-04-28T17:06:15.327Z,92.50
2023-04-28T17:08:44.119Z,92.60
2023-04-28T17:11:18.786Z,92.70
2023-04-28T17:13:47.917Z,93.00
2023-04-28T17:16:16.668Z,93.00
2023-04-28T17:18:45.963Z,92.70
2023-04-28T17:21:15.678Z,92.60
2023-04-28T17:23:44.384Z,92.60
2023-04-28T17:26:13.064Z,92.80
2023-04-28T17:28:42.274Z,92.90
2023-04-28T17:31:11.563Z,92.80
2023-04-28T17:33:40.343Z,92.60
2023-04-28T17:36:09.364Z,92.60
2023-04-28T17:38:39.297Z,93.10
2023-04-28T17:41:08.500Z,92.80
2023-04-28T17:43:38.512Z,93.20
2023-04-28T17:46:07.470Z,93.40
2023-04-28T17:48:36.234Z,93.40
2023-04-28T17:51:04.884Z,93.40
2023-04-28T17:53:33.476Z,93.50
2023-04-28T17:56:03.473Z,93.10
2023-04-28T17:58:33.690Z,92.90
2023-04-28T18:01:04.892Z,93.10
2023-04-28T18:03:35.337Z,93.70
2023-04-28T18:06:08.485Z,93.80
2023-04-28T18:08:37.721Z,93.90
2023-04-28T18:11:07.660Z,94.20
2023-04-28T18:13:36.409Z,94.20
2023-04-28T18:16:06.085Z,94.40
2023-04-28T18:18:35.651Z,94.40
2023-04-28T18:21:04.927Z,94.40
2023-04-28T18:23:34.193Z,93.90
2023-04-28T18:26:02.854Z,93.70
2023-04-28T18:28:31.620Z,93.60
2023-04-28T18:31:00.519Z,93.70
2023-04-28T18:33:29.175Z,94.00
2023-04-28T18:36:02.508Z,94.10
2023-04-28T18:38:32.676Z,94.00
2023-04-28T18:41:02.579Z,94.10
2023-04-28T18:43:31.625Z,94.30
2023-04-28T18:46:05.210Z,93.90
2023-04-28T18:48:35.167Z,93.90
2023-04-28T18:51:04.534Z,94.50
2023-04-28T18:53:33.685Z,94.40
2023-04-28T18:56:02.346Z,93.90
2023-04-28T18:58:31.030Z,93.60
2023-04-28T19:00:59.670Z,93.70
2023-04-28T19:03:29.115Z,93.70
2023-04-28T19:05:57.896Z,93.90
2023-04-28T19:08:26.567Z,94.30
2023-04-28T19:10:55.153Z,94.70
2023-04-28T19:13:24.183Z,95.10
2023-04-28T19:15:57.107Z,95.00
2023-04-28T19:18:25.872Z,95.00
2023-04-28T19:21:12.968Z,94.60
2023-04-28T19:23:41.927Z,95.20
2023-04-28T19:26:10.914Z,95.20
2023-04-28T19:28:39.576Z,95.30
2023-04-28T19:31:09.392Z,95.30
2023-04-28T19:33:38.075Z,95.40
2023-04-28T19:36:10.706Z,95.50
2023-04-28T19:38:41.169Z,95.50
2023-04-28T19:41:09.868Z,95.00
2023-04-28T19:43:38.710Z,94.70
2023-04-28T19:46:07.322Z,94.90
2023-04-28T19:48:36.023Z,94.70
2023-04-28T19:51:04.723Z,94.80
2023-04-28T19:53:33.602Z,95.50
2023-04-28T19:56:02.833Z,95.90
2023-04-28T19:58:32.640Z,96.10
2023-04-28T20:01:01.239Z,96.20
2023-04-28T20:03:30.838Z,95.50
2023-04-28T20:06:00.160Z,95.30
2023-04-28T20:08:29.350Z,95.30
2023-04-28T20:10:58.016Z,95.30
2023-04-28T20:13:28.334Z,95.10
2023-04-28T20:15:57.515Z,95.30
2023-04-28T20:18:26.769Z,96.00
2023-04-28T20:20:55.518Z,96.20
2023-04-28T20:23:24.254Z,96.60
2023-04-28T20:25:52.892Z,96.40
2023-04-28T20:28:21.541Z,96.40
2023-04-28T20:30:50.109Z,96.70
2023-04-28T20:33:19.731Z,96.70
2023-04-28T20:35:48.306Z,96.70
2023-04-28T20:38:17.014Z,96.80
2023-04-28T20:40:46.196Z,96.30
2023-04-28T20:43:14.836Z,95.90
2023-04-28T20:45:43.441Z,96.50
2023-04-28T20:48:12.116Z,96.10
2023-04-28T20:50:42.072Z,95.80
2023-04-28T20:53:10.728Z,96.00
2023-04-28T20:55:39.536Z,96.10
2023-04-28T20:58:08.419Z,96.10
2023-04-28T21:00:41.201Z,95.90
2023-04-28T21:03:16.193Z,96.40
2023-04-28T21:05:47.348Z,96.10
2023-04-28T21:08:16.385Z,95.80
2023-04-28T21:10:45.115Z,95.80
2023-04-28T21:13:14.062Z,95.70
2023-04-28T21:15:43.157Z,95.30
2023-04-28T21:18:11.993Z,95.40
2023-04-28T21:20:40.689Z,95.30
2023-04-28T21:23:09.421Z,95.30
2023-04-28T21:25:38.356Z,95.40
2023-04-28T21:28:07.047Z,95.50
2023-04-28T21:30:35.792Z,95.50
2023-04-28T21:33:04.536Z,95.50
2023-04-28T21:35:33.364Z,95.30
2023-04-28T21:38:02.086Z,95.40
2023-04-28T21:40:30.739Z,95.30
2023-04-28T21:42:59.422Z,95.40
2023-04-28T21:45:28.148Z,95.50
2023-04-28T21:47:57.980Z,95.40
2023-04-28T21:50:26.785Z,95.30
2023-04-28T21:52:55.949Z,95.30
2023-04-28T21:55:24.681Z,95.40
2023-04-28T21:57:54.975Z,95.50
2023-04-28T22:00:28.978Z,95.60
2023-04-28T22:02:59.280Z,95.80
2023-04-28T22:05:28.143Z,95.70
2023-04-28T22:07:56.788Z,96.00
2023-04-28T22:10:25.487Z,96.20
2023-04-28T22:12:54.139Z,96.30
2023-04-28T22:15:22.921Z,96.40
2023-04-28T22:17:51.724Z,96.00
2023-04-28T22:20:20.429Z,95.90
2023-04-28T22:22:49.036Z,95.80
2023-04-28T22:25:18.307Z,95.70
2023-04-28T22:27:46.927Z,96.10
2023-04-28T22:30:16.601Z,96.50
2023-04-28T22:32:45.669Z,96.90
2023-04-28T22:35:14.884Z,97.10
2023-04-28T22:37:44.519Z,97.40
2023-04-28T22:40:13.360Z,97.40
2023-04-28T22:42:43.546Z,97.60
2023-04-28T22:45:12.947Z,97.80
2023-04-28T22:47:42.829Z,98.00
2023-04-28T22:50:12.474Z,98.40
2023-04-28T22:52:41.329Z,98.40
2023-04-28T22:55:10.578Z,98.70
2023-04-28T22:57:39.296Z,98.90
2023-04-28T23:00:09.058Z,99.00
2023-04-28T23:02:37.826Z,99.00
2023-04-28T23:05:08.834Z,99.10
2023-04-28T23:07:37.600Z,99.30
2023-04-28T23:10:07.707Z,99.80
2023-04-28T23:12:36.377Z,99.90
2023-04-28T23:15:05.206Z,99.90
2023-04-28T23:17:33.875Z,99.90
2023-04-28T23:20:02.569Z,99.90
2023-04-28T23:22:31.228Z,99.90
2023-04-28T23:25:00.200Z,99.90
2023-04-28T23:27:29.003Z,99.90
2023-04-28T23:29:57.664Z,99.90
2023-04-28T23:32:26.380Z,99.90
2023-04-28T23:34:55.047Z,99.90
2023-04-28T23:37:23.668Z,99.90
2023-04-28T23:39:52.692Z,99.90
2023-04-28T23:42:21.651Z,99.90
2023-04-28T23:44:50.603Z,99.90
2023-04-28T23:47:19.281Z,99.50
2023-04-28T23:49:48.229Z,99.40
2023-04-28T23:52:17.534Z,99.60
2023-04-28T23:54:46.354Z,99.90
2023-04-28T23:57:14.970Z,99.90
2023-04-28T23:59:43.551Z,99.90
